createdAt,value
2022-08-26T00:00:16.472Z,32.75
2022-08-26T00:01:19.054Z,27.80
2022-08-26T00:02:31.046Z,34.05
2022-08-26T00:03:32.826Z,28.70
2022-08-26T00:04:34.682Z,31.77
2022-08-26T00:05:36.758Z,32.05
2022-08-26T00:06:42.520Z,33.88
2022-08-26T00:07:48.020Z,33.08
2022-08-26T00:08:50.915Z,25.38
2022-08-26T00:09:54.357Z,33.40
2022-08-26T00:10:57.024Z,25.23
2022-08-26T00:12:01.699Z,33.47
2022-08-26T00:13:05.310Z,33.72
2022-08-26T00:14:07.217Z,30.92
2022-08-26T00:15:11.222Z,34.50
2022-08-26T00:16:13.304Z,36.05
2022-08-26T00:17:15.042Z,31.08
2022-08-26T00:18:22.351Z,25.73
2022-08-26T00:19:24.520Z,30.75
2022-08-26T00:20:30.382Z,29.65
2022-08-26T00:21:32.584Z,36.88
2022-08-26T00:22:34.290Z,30.73
2022-08-26T00:23:41.837Z,41.67
2022-08-26T00:24:47.820Z,36.75
2022-08-26T00:25:49.877Z,32.05
2022-08-26T00:26:51.785Z,29.20
2022-08-26T00:27:53.584Z,25.52
2022-08-26T00:28:57.752Z,27.83
2022-08-26T00:30:05.284Z,28.45
2022-08-26T00:31:07.885Z,33.28
2022-08-26T00:32:12.941Z,33.92
2022-08-26T00:33:17.700Z,27.67
2022-08-26T00:34:20.181Z,26.27
2022-08-26T00:35:23.113Z,29.08
2022-08-26T00:36:25.522Z,29.27
2022-08-26T00:37:32.258Z,26.98
2022-08-26T00:38:35.638Z,31.27
2022-08-26T00:39:39.627Z,35.45
2022-08-26T00:40:48.635Z,33.50
2022-08-26T00:41:50.510Z,32.47
2022-08-26T00:42:52.397Z,38.75
2022-08-26T00:43:54.277Z,33.57
2022-08-26T00:44:56.581Z,35.15
2022-08-26T00:46:05.234Z,26.58
2022-08-26T00:47:21.369Z,31.33
2022-08-26T00:48:26.704Z,26.92
2022-08-26T00:49:40.358Z,31.02
2022-08-26T00:50:49.170Z,32.95
2022-08-26T00:51:54.324Z,24.60
2022-08-26T00:53:00.179Z,33.03
2022-08-26T00:54:05.973Z,34.92
2022-08-26T00:55:20.154Z,28.80
2022-08-26T00:56:34.031Z,35.50
2022-08-26T00:57:36.677Z,38.70
2022-08-26T00:58:42.886Z,31.95
2022-08-26T00:59:48.277Z,26.83
2022-08-26T01:00:50.037Z,28.05
2022-08-26T01:01:52.171Z,36.05
2022-08-26T01:02:56.027Z,34.67
2022-08-26T01:03:58.149Z,26.00
2022-08-26T01:05:03.381Z,30.55
2022-08-26T01:06:12.638Z,32.03
2022-08-26T01:07:16.273Z,27.90
2022-08-26T01:08:18.000Z,30.80
2022-08-26T01:09:22.303Z,29.60
2022-08-26T01:10:27.806Z,36.80
2022-08-26T01:11:30.510Z,27.27
2022-08-26T01:12:40.335Z,32.88
2022-08-26T01:13:42.630Z,34.97
2022-08-26T01:14:46.543Z,27.10
2022-08-26T01:15:51.753Z,25.70
2022-08-26T01:16:55.232Z,33.10
2022-08-26T01:17:58.885Z,40.00
2022-08-26T01:19:09.671Z,35.33
2022-08-26T01:20:40.105Z,25.52
2022-08-26T01:21:54.629Z,32.05
2022-08-26T01:23:03.287Z,32.53
2022-08-26T01:24:06.732Z,32.00
2022-08-26T01:25:08.900Z,31.92
2022-08-26T01:26:23.050Z,32.78
2022-08-26T01:27:32.549Z,29.15
2022-08-26T01:28:36.172Z,31.03
2022-08-26T01:29:40.827Z,34.25
2022-08-26T01:30:44.803Z,27.23
2022-08-26T01:31:57.630Z,42.92
2022-08-26T01:33:03.378Z,29.38
2022-08-26T01:34:09.085Z,30.77
2022-08-26T01:35:11.220Z,27.00
2022-08-26T01:36:13.259Z,29.33
2022-08-26T01:37:21.884Z,29.38
2022-08-26T01:38:23.705Z,30.70
2022-08-26T01:39:25.627Z,32.67
2022-08-26T01:40:32.603Z,39.88
2022-08-26T01:41:35.306Z,25.45
2022-08-26T01:42:38.160Z,33.30
2022-08-26T01:43:40.963Z,38.72
2022-08-26T01:44:49.462Z,30.15
2022-08-26T01:45:54.664Z,34.42
2022-08-26T01:46:58.739Z,34.13
2022-08-26T01:48:04.465Z,26.30
2022-08-26T01:49:08.324Z,31.42
2022-08-26T01:50:28.042Z,32.53
2022-08-26T01:51:37.026Z,29.00
2022-08-26T01:52:42.020Z,32.83
2022-08-26T01:53:46.023Z,34.17
2022-08-26T01:54:50.561Z,28.48
2022-08-26T01:55:57.727Z,28.27
2022-08-26T01:57:00.986Z,27.13
2022-08-26T01:58:18.158Z,26.42
2022-08-26T01:59:21.155Z,28.92
2022-08-26T02:00:24.563Z,31.85
2022-08-26T02:01:29.074Z,22.70
2022-08-26T02:02:31.037Z,27.33
2022-08-26T02:03:33.772Z,28.27
2022-08-26T02:04:48.699Z,27.10
2022-08-26T02:05:58.730Z,28.83
2022-08-26T02:07:08.077Z,25.45
2022-08-26T02:08:11.178Z,22.75
2022-08-26T02:09:13.466Z,24.80
2022-08-26T02:10:17.013Z,29.58
2022-08-26T02:11:21.708Z,25.23
2022-08-26T02:12:23.705Z,25.47
2022-08-26T02:13:31.577Z,29.25
2022-08-26T02:14:43.831Z,23.85
2022-08-26T02:15:46.810Z,28.40
2022-08-26T02:16:52.246Z,29.30
2022-08-26T02:17:54.111Z,24.98
2022-08-26T02:19:01.228Z,26.60
2022-08-26T02:20:06.462Z,28.27
2022-08-26T02:21:16.393Z,26.63
2022-08-26T02:22:22.583Z,30.45
2022-08-26T02:23:26.609Z,58.73
2022-08-26T02:24:30.813Z,28.98
2022-08-26T02:25:43.466Z,29.30
2022-08-26T02:26:46.241Z,29.60
2022-08-26T02:27:48.397Z,30.88
2022-08-26T02:28:51.604Z,25.08
2022-08-26T02:29:58.668Z,30.75
2022-08-26T02:31:00.719Z,26.55
2022-08-26T02:32:08.416Z,25.85
2022-08-26T02:33:11.091Z,23.88
2022-08-26T02:34:16.649Z,32.43
2022-08-26T02:35:20.500Z,22.17
2022-08-26T02:36:25.015Z,27.05
2022-08-26T02:37:31.997Z,28.58
2022-08-26T02:38:36.497Z,36.88
2022-08-26T02:39:41.895Z,26.08
2022-08-26T02:40:44.070Z,24.27
2022-08-26T02:41:46.893Z,34.80
2022-08-26T02:42:49.817Z,30.20
2022-08-26T02:43:55.907Z,25.98
2022-08-26T02:44:57.630Z,31.23
2022-08-26T02:46:01.959Z,30.55
2022-08-26T02:47:04.463Z,30.08
2022-08-26T02:48:17.177Z,35.00
2022-08-26T02:49:22.300Z,23.63
2022-08-26T02:50:25.708Z,26.27
2022-08-26T02:51:28.068Z,24.08
2022-08-26T02:52:29.796Z,25.33
2022-08-26T02:53:31.973Z,31.23
2022-08-26T02:54:37.897Z,34.50
2022-08-26T02:55:42.181Z,24.43
2022-08-26T02:56:44.911Z,24.23
2022-08-26T02:57:46.770Z,23.95
2022-08-26T02:58:48.834Z,31.75
2022-08-26T02:59:50.814Z,27.33
2022-08-26T03:00:53.791Z,23.00
2022-08-26T03:01:56.543Z,25.20
2022-08-26T03:02:59.332Z,32.25
2022-08-26T03:04:04.333Z,21.02
2022-08-26T03:05:07.347Z,22.45
2022-08-26T03:06:09.037Z,17.97
2022-08-26T03:07:10.888Z,24.23
2022-08-26T03:08:12.617Z,24.80
2022-08-26T03:09:18.522Z,25.17
2022-08-26T03:10:21.447Z,22.73
2022-08-26T03:11:23.975Z,28.92
2022-08-26T03:12:26.620Z,30.75
2022-08-26T03:13:28.403Z,22.90
2022-08-26T03:14:30.416Z,22.58
2022-08-26T03:15:32.428Z,31.50
2022-08-26T03:16:37.889Z,28.67
2022-08-26T03:17:39.940Z,29.27
2022-08-26T03:18:42.364Z,25.70
2022-08-26T03:19:44.114Z,25.65
2022-08-26T03:20:46.494Z,30.65
2022-08-26T03:21:48.492Z,19.92
2022-08-26T03:22:56.133Z,26.35
2022-08-26T03:23:58.794Z,26.52
2022-08-26T03:25:00.743Z,25.13
2022-08-26T03:26:05.329Z,31.27
2022-08-26T03:27:07.617Z,25.23
2022-08-26T03:28:09.719Z,24.63
2022-08-26T03:29:30.506Z,33.85
2022-08-26T03:30:45.092Z,25.45
2022-08-26T03:31:47.446Z,28.27
2022-08-26T03:32:49.390Z,25.00
2022-08-26T03:33:51.900Z,30.33
2022-08-26T03:34:54.249Z,27.42
2022-08-26T03:35:56.035Z,25.35
2022-08-26T03:36:58.853Z,21.20
2022-08-26T03:38:01.917Z,21.53
2022-08-26T03:39:03.747Z,23.42
2022-08-26T03:40:10.410Z,22.08
2022-08-26T03:41:12.309Z,31.30
2022-08-26T03:42:14.929Z,25.58
2022-08-26T03:43:17.366Z,29.08
2022-08-26T03:44:19.895Z,29.15
2022-08-26T03:45:22.067Z,27.38
2022-08-26T03:46:23.985Z,24.52
2022-08-26T03:47:28.524Z,24.48
2022-08-26T03:48:30.225Z,24.97
2022-08-26T03:49:32.935Z,24.08
2022-08-26T03:50:35.835Z,24.00
2022-08-26T03:51:38.825Z,25.38
2022-08-26T03:52:43.841Z,29.25
2022-08-26T03:53:47.704Z,28.83
2022-08-26T03:54:50.080Z,33.03
2022-08-26T03:55:52.180Z,23.08
2022-08-26T03:56:53.974Z,25.77
2022-08-26T03:57:55.787Z,23.42
2022-08-26T03:58:57.512Z,24.43
2022-08-26T03:59:59.455Z,24.30
2022-08-26T04:01:01.212Z,22.30
2022-08-26T04:02:03.949Z,31.27
2022-08-26T04:03:33.199Z,28.55
2022-08-26T04:04:35.325Z,24.95
2022-08-26T04:05:37.361Z,26.42
2022-08-26T04:06:43.272Z,24.10
2022-08-26T04:07:47.533Z,30.30
2022-08-26T04:08:50.543Z,24.65
2022-08-26T04:09:57.044Z,23.17
2022-08-26T04:11:01.225Z,27.10
2022-08-26T04:12:03.923Z,31.25
2022-08-26T04:13:06.623Z,29.20
2022-08-26T04:14:14.294Z,27.85
2022-08-26T04:15:21.719Z,32.55
2022-08-26T04:16:23.778Z,30.10
2022-08-26T04:17:29.567Z,22.05
2022-08-26T04:18:37.221Z,21.95
2022-08-26T04:19:39.568Z,25.63
2022-08-26T04:20:41.287Z,28.93
2022-08-26T04:21:44.539Z,24.75
2022-08-26T04:22:46.336Z,31.95
2022-08-26T04:23:48.736Z,28.40
2022-08-26T04:24:50.443Z,28.75
2022-08-26T04:25:52.164Z,26.85
2022-08-26T04:26:53.872Z,30.05
2022-08-26T04:27:55.625Z,26.85
2022-08-26T04:28:57.323Z,30.27
2022-08-26T04:30:01.679Z,33.58
2022-08-26T04:31:04.079Z,28.27
2022-08-26T04:32:06.012Z,31.83
2022-08-26T04:33:12.973Z,23.77
2022-08-26T04:34:15.349Z,21.33
2022-08-26T04:35:17.745Z,32.38
2022-08-26T04:36:19.898Z,29.67
2022-08-26T04:37:22.322Z,23.63
2022-08-26T04:38:24.395Z,33.78
2022-08-26T04:39:27.633Z,32.67
2022-08-26T04:40:29.675Z,29.20
2022-08-26T04:41:31.958Z,28.90
2022-08-26T04:42:33.822Z,27.88
2022-08-26T04:43:36.986Z,36.95
2022-08-26T04:44:41.102Z,27.25
2022-08-26T04:45:43.975Z,35.92
2022-08-26T04:46:45.770Z,34.17
2022-08-26T04:47:47.526Z,34.42
2022-08-26T04:48:51.949Z,33.17
2022-08-26T04:49:57.589Z,34.58
2022-08-26T04:51:03.495Z,28.10
2022-08-26T04:52:07.139Z,27.07
2022-08-26T04:53:09.726Z,25.77
2022-08-26T04:54:11.543Z,33.20
2022-08-26T04:55:13.257Z,27.63
2022-08-26T04:56:16.862Z,36.15
2022-08-26T04:57:18.844Z,28.27
2022-08-26T04:58:22.434Z,26.20
2022-08-26T04:59:25.288Z,24.60
2022-08-26T05:00:27.012Z,36.30
2022-08-26T05:01:31.179Z,29.92
2022-08-26T05:02:32.963Z,33.73
2022-08-26T05:03:36.232Z,32.83
2022-08-26T05:04:37.982Z,33.78
2022-08-26T05:05:41.871Z,33.67
2022-08-26T05:06:43.642Z,34.72
2022-08-26T05:07:45.379Z,28.83
2022-08-26T05:08:47.658Z,27.67
2022-08-26T05:09:49.425Z,30.75
2022-08-26T05:10:57.245Z,27.70
2022-08-26T05:11:59.021Z,25.88
2022-08-26T05:13:01.357Z,29.07
2022-08-26T05:14:03.265Z,34.35
2022-08-26T05:15:05.798Z,36.65
2022-08-26T05:16:11.583Z,29.08
2022-08-26T05:17:14.958Z,31.73
2022-08-26T05:18:20.707Z,28.63
2022-08-26T05:19:23.665Z,38.05
2022-08-26T05:20:25.778Z,31.23
2022-08-26T05:21:29.131Z,29.05
2022-08-26T05:22:31.070Z,30.40
2022-08-26T05:23:35.702Z,29.17
2022-08-26T05:24:37.515Z,32.10
2022-08-26T05:25:43.021Z,32.63
2022-08-26T05:26:45.361Z,27.80
2022-08-26T05:27:47.117Z,29.15
2022-08-26T05:28:49.343Z,30.63
2022-08-26T05:29:54.635Z,36.67
2022-08-26T05:30:56.705Z,28.20
2022-08-26T05:31:58.496Z,24.98
2022-08-26T05:33:01.901Z,30.27
2022-08-26T05:34:04.732Z,32.83
2022-08-26T05:35:07.754Z,32.38
2022-08-26T05:36:15.150Z,24.48
2022-08-26T05:37:17.047Z,29.00
2022-08-26T05:38:21.600Z,31.63
2022-08-26T05:39:24.556Z,29.10
2022-08-26T05:40:27.133Z,26.67
2022-08-26T05:41:36.637Z,31.45
2022-08-26T05:42:40.271Z,31.60
2022-08-26T05:43:42.102Z,22.77
2022-08-26T05:44:55.599Z,32.23
2022-08-26T05:46:07.005Z,35.30
2022-08-26T05:47:08.847Z,24.67
2022-08-26T05:48:10.680Z,33.97
2022-08-26T05:49:14.451Z,34.58
2022-08-26T05:50:21.896Z,27.10
2022-08-26T05:51:26.207Z,33.33
2022-08-26T05:52:28.101Z,38.15
2022-08-26T05:53:29.841Z,40.72
2022-08-26T05:54:33.892Z,34.20
2022-08-26T05:55:41.295Z,31.80
2022-08-26T05:56:43.148Z,22.70
2022-08-26T05:57:45.108Z,30.90
2022-08-26T05:58:47.033Z,35.85
2022-08-26T05:59:48.735Z,24.30
2022-08-26T06:01:25.651Z,24.88
2022-08-26T06:02:28.439Z,30.90
2022-08-26T06:03:31.651Z,27.20
2022-08-26T06:04:33.629Z,25.95
2022-08-26T06:05:41.531Z,30.13
2022-08-26T06:06:43.306Z,34.43
2022-08-26T06:08:05.561Z,31.95
2022-08-26T06:09:11.006Z,28.33
2022-08-26T06:10:31.477Z,30.35
2022-08-26T06:11:34.747Z,27.95
2022-08-26T06:12:37.421Z,32.35
2022-08-26T06:13:39.755Z,33.40
2022-08-26T06:14:41.503Z,30.65
2022-08-26T06:15:45.866Z,30.10
2022-08-26T06:16:47.871Z,33.22
2022-08-26T06:17:49.638Z,30.17
2022-08-26T06:18:52.976Z,37.65
2022-08-26T06:19:54.672Z,27.52
2022-08-26T06:20:58.141Z,29.48
2022-08-26T06:22:23.338Z,27.40
2022-08-26T06:23:46.012Z,32.90
2022-08-26T06:25:06.535Z,28.50
2022-08-26T06:26:10.994Z,32.00
2022-08-26T06:27:14.000Z,32.20
2022-08-26T06:28:17.489Z,26.60
2022-08-26T06:29:24.726Z,34.10
2022-08-26T06:30:26.783Z,27.50
2022-08-26T06:31:29.441Z,31.27
2022-08-26T06:32:31.752Z,33.03
2022-08-26T06:33:33.928Z,32.38
2022-08-26T06:34:36.089Z,27.92
2022-08-26T06:35:39.850Z,34.20
2022-08-26T06:36:43.925Z,35.30
2022-08-26T06:37:46.099Z,32.67
2022-08-26T06:38:49.027Z,24.20
2022-08-26T06:39:51.169Z,32.83
2022-08-26T06:40:54.851Z,31.25
2022-08-26T06:41:56.897Z,24.92
2022-08-26T06:42:58.776Z,37.10
2022-08-26T06:44:01.514Z,32.15
2022-08-26T06:45:03.975Z,30.90
2022-08-26T06:46:10.550Z,30.30
2022-08-26T06:47:13.592Z,31.10
2022-08-26T06:48:18.537Z,27.80
2022-08-26T06:49:27.147Z,36.65
2022-08-26T06:50:29.841Z,40.43
2022-08-26T06:51:34.685Z,32.67
2022-08-26T06:52:36.483Z,31.48
2022-08-26T06:53:39.762Z,28.35
2022-08-26T06:54:43.257Z,29.23
2022-08-26T06:55:46.875Z,29.58
2022-08-26T06:56:53.837Z,31.92
2022-08-26T06:57:57.745Z,31.67
2022-08-26T06:59:00.564Z,26.92
2022-08-26T07:00:10.705Z,41.47
2022-08-26T07:01:31.763Z,35.43
2022-08-26T07:02:34.580Z,34.05
2022-08-26T07:03:39.610Z,31.75
2022-08-26T07:04:41.894Z,29.35
2022-08-26T07:05:44.346Z,29.83
2022-08-26T07:06:48.940Z,27.15
2022-08-26T07:07:52.411Z,25.42
2022-08-26T07:09:01.296Z,33.28
2022-08-26T07:10:06.007Z,40.17
2022-08-26T07:11:10.043Z,26.25
2022-08-26T07:12:12.393Z,35.67
2022-08-26T07:13:14.948Z,25.70
2022-08-26T07:14:21.217Z,31.13
2022-08-26T07:15:23.952Z,31.80
2022-08-26T07:16:29.920Z,30.52
2022-08-26T07:17:32.245Z,36.72
2022-08-26T07:18:36.729Z,28.85
2022-08-26T07:19:38.481Z,29.02
2022-08-26T07:20:42.307Z,36.65
2022-08-26T07:21:44.708Z,27.85
2022-08-26T07:22:46.415Z,40.17
2022-08-26T07:23:48.981Z,32.88
2022-08-26T07:24:50.897Z,33.67
2022-08-26T07:25:52.632Z,28.65
2022-08-26T07:26:54.346Z,33.40
2022-08-26T07:27:56.038Z,33.08
2022-08-26T07:28:59.409Z,30.40
2022-08-26T07:30:02.114Z,42.17
2022-08-26T07:31:11.363Z,23.45
2022-08-26T07:32:15.329Z,26.92
2022-08-26T07:33:20.062Z,35.87
2022-08-26T07:34:22.916Z,30.77
2022-08-26T07:35:25.488Z,32.75
2022-08-26T07:36:29.069Z,27.05
2022-08-26T07:37:30.800Z,44.45
2022-08-26T07:38:42.002Z,30.55
2022-08-26T07:39:44.309Z,32.97
2022-08-26T07:40:46.058Z,25.80
2022-08-26T07:41:47.813Z,27.20
2022-08-26T07:42:50.893Z,33.90
2022-08-26T07:43:53.792Z,38.70
2022-08-26T07:44:55.496Z,30.27
2022-08-26T07:45:57.660Z,36.72
2022-08-26T07:46:59.473Z,27.52
2022-08-26T07:48:01.402Z,27.10
2022-08-26T07:49:06.067Z,33.47
2022-08-26T07:50:08.787Z,36.30
2022-08-26T07:51:11.382Z,32.65
2022-08-26T07:52:13.101Z,29.65
2022-08-26T07:53:15.380Z,34.25
2022-08-26T07:54:20.152Z,25.90
2022-08-26T07:55:26.297Z,35.50
2022-08-26T07:56:28.224Z,41.95
2022-08-26T07:57:30.400Z,32.65
2022-08-26T07:58:32.212Z,30.40
2022-08-26T07:59:34.109Z,29.60
2022-08-26T08:00:35.922Z,28.25
2022-08-26T08:01:38.832Z,26.63
2022-08-26T08:02:40.625Z,33.45
2022-08-26T08:03:42.472Z,35.60
2022-08-26T08:04:44.319Z,38.73
2022-08-26T08:05:46.402Z,35.33
2022-08-26T08:06:48.643Z,29.77
2022-08-26T08:07:53.664Z,42.92
2022-08-26T08:09:14.930Z,37.55
2022-08-26T08:10:21.372Z,37.95
2022-08-26T08:11:24.660Z,27.05
2022-08-26T08:12:26.354Z,39.00
2022-08-26T08:13:28.454Z,38.58
2022-08-26T08:14:31.055Z,34.35
2022-08-26T08:15:34.247Z,36.70
2022-08-26T08:16:41.563Z,43.47
2022-08-26T08:17:47.929Z,26.80
2022-08-26T08:18:53.535Z,32.55
2022-08-26T08:19:55.429Z,36.03
2022-08-26T08:21:10.875Z,31.85
2022-08-26T08:22:23.549Z,46.65
2022-08-26T08:23:26.078Z,24.63
2022-08-26T08:24:28.750Z,26.08
2022-08-26T08:25:31.996Z,34.63
2022-08-26T08:26:35.212Z,37.50
2022-08-26T08:27:39.073Z,47.03
2022-08-26T08:28:40.866Z,35.40
2022-08-26T08:29:43.317Z,34.63
2022-08-26T08:30:45.124Z,30.70
2022-08-26T08:31:58.402Z,37.88
2022-08-26T08:33:03.212Z,39.97
2022-08-26T08:34:05.470Z,37.05
2022-08-26T08:35:11.112Z,34.50
2022-08-26T08:36:20.483Z,37.13
2022-08-26T08:37:23.144Z,29.40
2022-08-26T08:38:26.352Z,38.20
2022-08-26T08:39:31.554Z,37.13
2022-08-26T08:40:34.169Z,38.42
2022-08-26T08:41:48.241Z,40.70
2022-08-26T08:42:56.660Z,38.53
2022-08-26T08:44:01.655Z,42.10
2022-08-26T08:45:38.222Z,31.83
2022-08-26T08:46:42.474Z,39.15
2022-08-26T08:47:50.406Z,35.38
2022-08-26T08:48:57.022Z,31.13
2022-08-26T08:50:19.695Z,33.75
2022-08-26T08:51:42.632Z,38.85
2022-08-26T08:52:51.866Z,30.45
2022-08-26T08:53:55.031Z,35.22
2022-08-26T08:54:57.447Z,29.27
2022-08-26T08:56:26.098Z,36.50
2022-08-26T08:57:45.892Z,37.67
2022-08-26T08:59:06.633Z,31.90
2022-08-26T09:00:16.951Z,32.88
2022-08-26T09:01:33.577Z,35.43
2022-08-26T09:02:56.368Z,37.10
2022-08-26T09:04:13.117Z,31.13
2022-08-26T09:05:18.984Z,37.30
2022-08-26T09:06:21.087Z,34.85
2022-08-26T09:07:27.496Z,36.25
2022-08-26T09:08:35.219Z,27.95
2022-08-26T09:09:48.434Z,35.05
2022-08-26T09:10:57.979Z,34.83
2022-08-26T09:12:01.671Z,29.85
2022-08-26T09:13:09.834Z,40.13
2022-08-26T09:14:18.106Z,30.02
2022-08-26T09:15:48.658Z,27.90
2022-08-26T09:17:21.547Z,33.08
2022-08-26T09:18:35.653Z,29.70
2022-08-26T09:19:45.029Z,32.50
2022-08-26T09:21:03.521Z,35.58
2022-08-26T09:22:09.428Z,31.80
2022-08-26T09:23:11.971Z,28.33
2022-08-26T09:24:14.199Z,30.90
2022-08-26T09:25:16.249Z,29.47
2022-08-26T09:26:25.936Z,35.47
2022-08-26T09:27:42.223Z,36.45
2022-08-26T09:29:02.359Z,36.15
2022-08-26T09:30:05.328Z,35.42
2022-08-26T09:31:11.702Z,29.67
2022-08-26T09:32:25.256Z,30.25
2022-08-26T09:33:30.380Z,40.72
2022-08-26T09:34:32.076Z,35.38
2022-08-26T09:35:39.574Z,34.35
2022-08-26T09:36:47.851Z,26.43
2022-08-26T09:38:56.392Z,21.48
2022-08-26T09:40:12.226Z,28.83
2022-08-26T09:41:36.965Z,30.30
2022-08-26T09:42:38.698Z,46.75
2022-08-26T09:43:41.935Z,27.10
2022-08-26T09:44:52.605Z,35.60
2022-08-26T09:46:18.490Z,36.08
2022-08-26T09:47:45.571Z,40.67
2022-08-26T09:48:47.389Z,32.03
2022-08-26T09:50:01.575Z,37.83
2022-08-26T09:51:26.836Z,25.65
2022-08-26T09:52:28.844Z,36.03
2022-08-26T09:53:37.535Z,41.40
2022-08-26T09:54:40.702Z,30.98
2022-08-26T09:55:49.843Z,29.88
2022-08-26T09:56:52.404Z,28.40
2022-08-26T09:57:55.620Z,31.00
2022-08-26T09:59:00.169Z,38.33
2022-08-26T10:00:22.869Z,30.03
2022-08-26T10:01:36.122Z,33.63
2022-08-26T10:02:41.607Z,26.85
2022-08-26T10:03:50.639Z,33.83
2022-08-26T10:04:55.291Z,33.25
2022-08-26T10:06:07.827Z,21.88
2022-08-26T10:07:09.832Z,29.20
2022-08-26T10:08:23.095Z,31.10
2022-08-26T10:09:26.512Z,25.58
2022-08-26T10:10:41.993Z,27.08
2022-08-26T10:12:00.161Z,38.17
2022-08-26T10:13:11.202Z,25.85
2022-08-26T10:14:20.205Z,43.67
2022-08-26T10:15:25.291Z,34.33
2022-08-26T10:16:29.796Z,33.70
2022-08-26T10:17:39.434Z,38.97
2022-08-26T10:18:59.903Z,34.88
2022-08-26T10:20:09.841Z,41.15
2022-08-26T10:21:49.571Z,36.42
2022-08-26T10:23:06.732Z,34.97
2022-08-26T10:24:11.316Z,33.93
2022-08-26T10:25:17.227Z,33.88
2022-08-26T10:26:25.176Z,35.83
2022-08-26T10:27:48.448Z,47.83
2022-08-26T10:29:10.036Z,49.95
2022-08-26T10:30:16.153Z,35.00
2022-08-26T10:31:38.246Z,38.42
2022-08-26T10:32:56.709Z,43.67
2022-08-26T10:34:00.403Z,32.08
2022-08-26T10:35:03.993Z,28.88
2022-08-26T10:36:39.268Z,32.77
2022-08-26T10:37:55.838Z,40.85
2022-08-26T10:39:01.816Z,27.27
2022-08-26T10:40:25.388Z,36.60
2022-08-26T10:41:32.141Z,27.95
2022-08-26T10:42:37.535Z,24.38
2022-08-26T10:43:58.585Z,25.05
2022-08-26T10:45:11.920Z,26.75
2022-08-26T10:46:27.361Z,30.27
2022-08-26T10:47:38.351Z,25.00
2022-08-26T10:49:03.206Z,42.77
2022-08-26T10:50:08.432Z,28.38
2022-08-26T10:51:12.947Z,26.08
2022-08-26T10:52:28.444Z,33.65
2022-08-26T10:53:32.676Z,28.27
2022-08-26T10:54:54.778Z,29.52
2022-08-26T10:56:46.677Z,31.23
2022-08-26T10:58:11.626Z,31.38
2022-08-26T10:59:39.173Z,34.67
2022-08-26T11:01:10.788Z,31.20
2022-08-26T11:02:24.683Z,28.13
2022-08-26T11:03:34.358Z,29.52
2022-08-26T11:04:54.769Z,32.97
2022-08-26T11:06:15.270Z,29.60
2022-08-26T11:07:36.841Z,28.50
2022-08-26T11:08:53.089Z,29.85
2022-08-26T11:09:54.875Z,32.38
2022-08-26T11:11:00.378Z,31.25
2022-08-26T11:12:09.938Z,24.02
2022-08-26T11:13:12.173Z,26.35
2022-08-26T11:14:29.234Z,33.97
2022-08-26T11:15:31.494Z,30.70
2022-08-26T11:16:54.135Z,29.75
2022-08-26T11:18:02.363Z,27.85
2022-08-26T11:19:05.146Z,37.55
2022-08-26T11:20:13.520Z,25.13
2022-08-26T11:21:44.611Z,15.90
2022-08-26T11:22:47.783Z,21.40
2022-08-26T11:23:50.190Z,27.90
2022-08-26T11:24:55.554Z,29.17
2022-08-26T11:26:18.878Z,19.47
2022-08-26T11:27:36.796Z,13.18
2022-08-26T11:28:50.205Z,11.82
2022-08-26T11:30:13.646Z,17.83
2022-08-26T11:31:25.202Z,22.13
2022-08-26T11:32:39.110Z,14.15
2022-08-26T11:33:43.926Z,19.63
2022-08-26T11:34:58.349Z,21.30
2022-08-26T11:36:00.622Z,13.20
2022-08-26T11:37:17.516Z,23.98
2022-08-26T11:38:28.951Z,16.40
2022-08-26T11:39:57.687Z,24.80
2022-08-26T11:41:11.537Z,20.02
2022-08-26T11:42:31.989Z,24.33
2022-08-26T11:43:34.250Z,17.25
2022-08-26T11:44:40.562Z,17.48
2022-08-26T11:45:48.976Z,32.03
2022-08-26T11:47:03.009Z,30.98
2022-08-26T11:48:22.795Z,25.08
2022-08-26T11:49:28.330Z,27.02
2022-08-26T11:50:30.143Z,26.80
2022-08-26T11:51:34.952Z,24.42
2022-08-26T11:52:40.267Z,26.88
2022-08-26T11:53:47.364Z,29.70
2022-08-26T11:55:08.803Z,26.27
2022-08-26T11:56:32.491Z,21.00
2022-08-26T11:57:40.594Z,25.83
2022-08-26T11:58:44.784Z,27.58
2022-08-26T11:59:46.678Z,30.58
2022-08-26T12:01:05.441Z,21.02
2022-08-26T12:02:17.795Z,25.27
2022-08-26T12:03:25.136Z,28.42
2022-08-26T12:04:37.691Z,25.88
2022-08-26T12:05:44.878Z,29.20
2022-08-26T12:06:51.052Z,26.02
2022-08-26T12:07:54.324Z,21.60
2022-08-26T12:09:02.408Z,21.83
2022-08-26T12:10:06.844Z,23.90
2022-08-26T12:11:13.600Z,23.40
2022-08-26T12:12:36.046Z,17.83
2022-08-26T12:13:39.175Z,25.70
2022-08-26T12:14:41.813Z,22.58
2022-08-26T12:15:53.324Z,19.58
2022-08-26T12:17:13.026Z,26.00
2022-08-26T12:18:29.324Z,22.23
2022-08-26T12:19:33.838Z,20.73
2022-08-26T12:20:58.774Z,19.52
2022-08-26T12:22:15.895Z,19.23
2022-08-26T12:23:26.053Z,18.40
2022-08-26T12:24:28.313Z,18.50
2022-08-26T12:25:36.296Z,19.10
2022-08-26T12:26:39.351Z,24.33
2022-08-26T12:27:43.081Z,19.05
2022-08-26T12:28:49.013Z,15.38
2022-08-26T12:30:12.369Z,19.33
2022-08-26T12:31:29.136Z,20.83
2022-08-26T12:32:31.818Z,19.73
2022-08-26T12:33:37.900Z,27.08
2022-08-26T12:34:42.229Z,16.77
2022-08-26T12:35:44.881Z,17.08
2022-08-26T12:36:52.954Z,16.83
2022-08-26T12:37:55.308Z,14.00
2022-08-26T12:39:05.383Z,15.30
2022-08-26T12:40:43.241Z,19.30
2022-08-26T12:41:48.785Z,14.95
2022-08-26T12:42:50.628Z,15.30
2022-08-26T12:43:52.390Z,16.83
2022-08-26T12:45:04.381Z,17.88
2022-08-26T12:46:08.869Z,13.32
2022-08-26T12:47:33.841Z,15.80
2022-08-26T12:48:49.594Z,11.83
2022-08-26T12:50:00.005Z,19.50
2022-08-26T12:51:03.580Z,18.42
2022-08-26T12:52:09.709Z,14.93
2022-08-26T12:53:11.392Z,14.25
2022-08-26T12:54:15.907Z,15.68
2022-08-26T12:55:39.183Z,16.67
2022-08-26T12:56:41.069Z,20.05
2022-08-26T12:57:42.949Z,14.43
2022-08-26T12:58:44.989Z,15.82
2022-08-26T12:59:46.768Z,15.30
2022-08-26T13:00:49.643Z,21.38
2022-08-26T13:01:53.601Z,15.25
2022-08-26T13:02:55.678Z,21.48
2022-08-26T13:03:57.902Z,16.50
2022-08-26T13:05:00.937Z,11.40
2022-08-26T13:06:20.833Z,22.67
2022-08-26T13:07:25.835Z,16.58
2022-08-26T13:08:28.295Z,13.85
2022-08-26T13:09:31.442Z,16.77
2022-08-26T13:10:36.398Z,16.37
2022-08-26T13:11:40.881Z,18.25
2022-08-26T13:12:42.600Z,17.27
2022-08-26T13:13:45.729Z,9.93
2022-08-26T13:14:49.454Z,13.90
2022-08-26T13:15:52.460Z,13.02
2022-08-26T13:16:54.333Z,14.05
2022-08-26T13:17:56.137Z,17.50
2022-08-26T13:19:02.071Z,14.55
2022-08-26T13:20:04.662Z,17.55
2022-08-26T13:21:13.281Z,28.13
2022-08-26T13:22:24.250Z,17.20
2022-08-26T13:23:26.138Z,14.20
2022-08-26T13:24:32.766Z,10.95
2022-08-26T13:25:34.557Z,18.02
2022-08-26T13:26:36.330Z,12.68
2022-08-26T13:27:38.085Z,14.68
2022-08-26T13:28:39.844Z,12.57
2022-08-26T13:29:42.048Z,21.90
2022-08-26T13:30:47.772Z,18.35
2022-08-26T13:31:50.074Z,13.23
2022-08-26T13:32:57.229Z,14.60
2022-08-26T13:33:59.637Z,17.60
2022-08-26T13:35:05.827Z,13.43
2022-08-26T13:36:08.022Z,17.13
2022-08-26T13:37:09.757Z,18.80
2022-08-26T13:38:33.013Z,16.48
2022-08-26T13:39:35.791Z,16.05
2022-08-26T13:40:37.551Z,11.13
2022-08-26T13:41:39.559Z,14.52
2022-08-26T13:42:49.508Z,10.40
2022-08-26T13:43:53.591Z,10.40
2022-08-26T13:44:58.126Z,14.73
2022-08-26T13:46:01.517Z,17.20
2022-08-26T13:47:03.367Z,13.98
2022-08-26T13:48:06.567Z,16.85
2022-08-26T13:49:08.739Z,11.95
2022-08-26T13:50:10.690Z,21.65
2022-08-26T13:51:12.505Z,23.88
2022-08-26T13:52:14.317Z,20.73
2022-08-26T13:53:17.352Z,22.43
2022-08-26T13:54:19.195Z,13.18
2022-08-26T13:55:20.963Z,16.58
2022-08-26T13:56:23.766Z,26.38
2022-08-26T13:57:27.914Z,16.85
2022-08-26T13:58:29.720Z,13.80
2022-08-26T13:59:31.995Z,15.57
2022-08-26T14:00:34.247Z,20.25
2022-08-26T14:01:36.348Z,13.35
2022-08-26T14:02:38.159Z,16.95
2022-08-26T14:03:40.054Z,9.53
2022-08-26T14:04:41.963Z,16.58
2022-08-26T14:05:43.807Z,10.18
2022-08-26T14:06:45.608Z,14.30
2022-08-26T14:07:49.581Z,10.82
2022-08-26T14:08:51.354Z,12.32
2022-08-26T14:09:53.206Z,16.85
2022-08-26T14:10:55.010Z,15.73
2022-08-26T14:11:58.129Z,13.88
2022-08-26T14:13:00.840Z,14.27
2022-08-26T14:14:02.618Z,7.43
2022-08-26T14:15:04.755Z,15.27
2022-08-26T14:16:13.418Z,7.80